Time;durP1;ratioP1;P1;durP2;ratioP2;P2;SDS_P1;SDS_P2;PMS_P1;PMS_P2;Temp;Humidity;BMP_temperature;BMP_pressure;BME280_temperature;BME280_humidity;BME280_pressure;Samples;Min_cycle;Max_cycle;Signal;HPM_P1;HPM_P2
2021/01/06 00:00:46;;;;;;;7.45;2.42;;;;;;;5.46;76.14;101473.38;4442293;32;20086;-78
2021/01/06 00:03:14;;;;;;;5.97;2.20;;;;;;;5.42;76.03;101478.13;4434630;32;20075;-75
2021/01/06 00:05:42;;;;;;;5.68;1.98;;;;;;;5.42;76.19;101471.72;4446416;32;20131;-76
2021/01/06 00:08:08;;;;;;;6.00;2.42;;;;;;;5.50;76.30;101476.19;4442308;32;20067;-76
2021/01/06 00:10:34;;;;;;;8.18;2.70;;;;;;;5.50;75.83;101473.41;4445313;32;20034;-78
2021/01/06 00:13:00;;;;;;;5.57;2.17;;;;;;;5.47;75.29;101475.00;4441176;32;20029;-75
2021/01/06 00:15:31;;;;;;;6.30;2.78;;;;;;;5.46;75.82;101470.56;4438634;32;20095;-75
2021/01/06 00:17:56;;;;;;;6.95;2.42;;;;;;;5.43;75.54;101460.19;4442842;32;20038;-77
2021/01/06 00:20:24;;;;;;;7.70;2.80;;;;;;;5.33;75.34;101460.09;4450226;32;20071;-75
2021/01/06 00:22:50;;;;;;;10.90;2.60;;;;;;;5.25;75.07;101462.00;4441706;32;20041;-76
2021/01/06 00:25:18;;;;;;;7.03;2.55;;;;;;;5.16;75.30;101453.16;4448264;32;20472;-75
2021/01/06 00:27:44;;;;;;;5.18;2.45;;;;;;;5.05;75.58;101457.84;4437535;32;20098;-76
2021/01/06 00:33:07;;;;;;;10.40;2.37;;;;;;;5.23;74.84;101464.41;3980596;32;15022965;-80
2021/01/06 00:35:34;;;;;;;9.60;2.92;;;;;;;5.23;74.84;101464.41;4438371;32;20033;-76
2021/01/06 00:38:00;;;;;;;7.28;2.42;;;;;;;4.86;75.71;101454.47;4443868;32;20133;-80
2021/01/06 00:40:29;;;;;;;10.95;2.97;;;;;;;4.76;75.76;101446.78;4437370;32;20131;-78
2021/01/06 00:42:57;;;;;;;8.60;2.87;;;;;;;4.73;75.99;101448.38;4443569;32;20018;-79
2021/01/06 00:45:23;;;;;;;8.88;2.92;;;;;;;4.75;76.06;101448.75;4438363;32;20034;-75
2021/01/06 00:47:49;;;;;;;10.27;2.90;;;;;;;4.70;76.19;101449.12;4441285;32;20153;-76
2021/01/06 00:50:15;;;;;;;12.75;3.47;;;;;;;4.65;76.25;101451.44;4442135;32;20037;-78
2021/01/06 00:52:40;;;;;;;14.07;3.05;;;;;;;4.63;76.00;101440.66;4436455;32;20053;-79
2021/01/06 00:55:07;;;;;;;7.18;2.85;;;;;;;4.64;76.37;101441.47;4439117;32;20048;-76
2021/01/06 00:57:33;;;;;;;12.35;3.00;;;;;;;4.73;76.39;101447.56;4437943;32;20416;-77
2021/01/06 00:59:59;;;;;;;7.25;2.30;;;;;;;4.72;76.05;101435.59;4434464;32;20068;-79
2021/01/06 01:02:25;;;;;;;8.45;2.70;;;;;;;4.73;76.25;101440.00;4436478;32;20045;-77
2021/01/06 01:04:50;;;;;;;9.45;3.03;;;;;;;4.83;76.25;101435.69;4438730;32;20548;-76
2021/01/06 01:07:16;;;;;;;12.02;2.62;;;;;;;4.84;75.89;101443.69;4433403;32;20061;-76
2021/01/06 01:09:44;;;;;;;8.85;2.65;;;;;;;4.83;75.66;101444.06;4440790;32;20115;-78
2021/01/06 01:12:11;;;;;;;6.70;2.67;;;;;;;4.87;75.46;101437.34;4431464;32;20431;-77
2021/01/06 01:14:37;;;;;;;11.45;2.60;;;;;;;4.73;75.80;101440.00;4434158;32;20143;-78
2021/01/06 01:17:03;;;;;;;9.73;2.58;;;;;;;4.69;75.80;101430.78;4438211;32;20082;-79
2021/01/06 01:19:29;;;;;;;6.95;2.47;;;;;;;4.75;75.85;101432.03;4439149;32;20065;-77
2021/01/06 01:21:54;;;;;;;12.07;2.92;;;;;;;4.68;75.66;101434.75;4436185;32;20048;-77
2021/01/06 01:24:20;;;;;;;10.07;2.85;;;;;;;4.62;75.97;101444.66;4437572;32;20052;-77
2021/01/06 01:26:50;;;;;;;7.00;2.70;;;;;;;4.59;75.99;101427.88;4437608;32;20048;-76
2021/01/06 01:29:16;;;;;;;5.60;2.45;;;;;;;4.55;76.05;101432.63;4447908;32;20105;-77
2021/01/06 01:31:41;;;;;;;10.07;3.33;;;;;;;4.44;76.35;101420.53;4438973;32;20077;-76
2021/01/06 01:34:07;;;;;;;8.55;2.83;;;;;;;4.45;76.20;101425.72;4442678;32;20029;-77
2021/01/06 01:36:33;;;;;;;11.98;2.83;;;;;;;4.44;76.25;101431.69;4439671;32;20073;-77
2021/01/06 01:38:58;;;;;;;12.82;3.25;;;;;;;4.38;76.30;101424.88;4437630;32;20457;-75
2021/01/06 01:41:26;;;;;;;6.60;2.22;;;;;;;4.21;76.32;101428.22;4431744;32;20041;-79
2021/01/06 01:43:52;;;;;;;11.18;3.22;;;;;;;4.33;76.63;101427.97;4432100;32;20061;-77
2021/01/06 01:48:56;;;;;;;7.15;2.22;;;;;;;4.74;75.35;101438.81;3986188;32;15147309;-76
2021/01/06 01:51:35;;;;;;;13.07;2.85;;;;;;;4.74;75.35;101438.81;4446756;32;20480;-76
2021/01/06 01:54:05;;;;;;;10.85;2.78;;;;;;;4.34;76.14;101433.16;4447375;32;20029;-77
2021/01/06 01:56:43;;;;;;;9.18;2.70;;;;;;;4.31;76.35;101439.50;4447805;32;20045;-75
2021/01/06 01:59:17;;;;;;;7.57;3.10;;;;;;;4.27;76.05;101426.72;4443324;32;20069;-76
2021/01/06 02:01:46;;;;;;;10.60;2.30;;;;;;;4.20;76.37;101427.41;4443907;32;20038;-79
2021/01/06 02:04:24;;;;;;;7.25;2.20;;;;;;;4.21;76.40;101434.59;4447407;32;20208;-77
2021/01/06 02:06:59;;;;;;;6.85;2.42;;;;;;;4.15;76.37;101428.53;4445360;32;20130;-77
2021/01/06 02:09:32;;;;;;;9.88;2.65;;;;;;;4.12;76.51;101428.50;4445916;32;20109;-77
2021/01/06 02:12:21;;;;;;;6.65;2.58;;;;;;;4.08;76.58;101424.84;4442356;32;20067;-76
2021/01/06 02:14:59;;;;;;;8.70;2.42;;;;;;;4.08;76.75;101438.78;4440649;32;20025;-77
2021/01/06 02:17:25;;;;;;;6.47;1.55;;;;;;;4.12;76.96;101442.44;4439344;32;20060;-76
2021/01/06 02:19:51;;;;;;;6.10;1.90;;;;;;;4.00;76.96;101439.91;4444191;32;20061;-75
2021/01/06 02:22:19;;;;;;;10.45;1.77;;;;;;;4.08;77.22;101433.22;4442726;32;20034;-77
2021/01/06 02:24:48;;;;;;;7.57;2.25;;;;;;;4.14;77.44;101434.50;4445348;32;20060;-76
2021/01/06 02:27:14;;;;;;;11.27;3.03;;;;;;;4.26;77.33;101442.59;4447032;32;20495;-77
2021/01/06 02:29:40;;;;;;;3.15;1.85;;;;;;;4.35;77.01;101440.34;4445007;32;20061;-76
2021/01/06 02:32:08;;;;;;;8.30;2.40;;;;;;;4.41;76.89;101441.59;4445102;32;20038;-78
2021/01/06 02:34:36;;;;;;;17.95;2.12;;;;;;;4.58;76.71;101443.81;4427180;32;20226;-77
2021/01/06 02:37:04;;;;;;;5.28;1.48;;;;;;;4.60;76.20;101435.06;4429792;32;20045;-76
2021/01/06 02:39:30;;;;;;;6.30;1.98;;;;;;;4.65;76.21;101429.94;4431322;32;20052;-79
2021/01/06 02:41:56;;;;;;;10.20;2.45;;;;;;;4.70;75.85;101435.19;4428502;32;20831;-75
2021/01/06 02:44:22;;;;;;;13.62;2.47;;;;;;;4.75;75.61;101431.25;4432270;32;20471;-76
2021/01/06 02:46:49;;;;;;;12.40;2.47;;;;;;;4.75;75.12;101432.03;4427391;32;20042;-77
2021/01/06 02:49:14;;;;;;;8.63;2.17;;;;;;;4.61;74.99;101436.66;4429244;32;20026;-79
2021/01/06 02:51:52;;;;;;;10.43;2.60;;;;;;;4.55;75.28;101430.63;4428563;32;20490;-77
2021/01/06 02:54:22;;;;;;;9.27;2.55;;;;;;;4.62;75.41;101425.12;4428946;32;20026;-77
2021/01/06 02:56:52;;;;;;;8.27;3.12;;;;;;;4.70;75.58;101429.63;4429194;32;20026;-78
2021/01/06 02:59:21;;;;;;;6.97;2.70;;;;;;;4.75;75.30;101428.47;4425160;32;20042;-77
2021/01/06 03:01:48;;;;;;;9.25;2.85;;;;;;;4.85;75.17;101424.97;4419083;32;20030;-77
2021/01/06 03:04:17;;;;;;;8.55;3.35;;;;;;;4.83;74.39;101424.56;4418190;32;20403;-78
2021/01/06 03:07:03;;;;;;;10.10;2.60;;;;;;;4.91;74.34;101423.44;4418716;32;20065;-76
2021/01/06 03:12:17;;;;;;;8.43;3.00;;;;;;;5.27;72.98;101426.16;3992218;32;15022819;-75
2021/01/06 03:14:43;;;;;;;6.45;2.58;;;;;;;5.27;72.98;101426.16;4442336;32;20371;-76
2021/01/06 03:17:16;;;;;;;5.82;2.45;;;;;;;4.87;73.85;101420.63;4437253;32;20389;-76
2021/01/06 03:19:46;;;;;;;6.45;2.15;;;;;;;4.75;73.61;101423.66;4442725;32;20395;-78
2021/01/06 03:22:16;;;;;;;6.55;2.33;;;;;;;4.66;74.02;101419.59;4442448;32;20347;-75
2021/01/06 03:24:49;;;;;;;5.47;1.90;;;;;;;4.48;74.06;101419.38;4439120;32;20059;-76
2021/01/06 03:27:16;;;;;;;6.85;1.90;;;;;;;4.54;74.29;101409.50;4438769;32;20359;-77
2021/01/06 03:29:44;;;;;;;8.32;2.47;;;;;;;4.50;74.67;101424.56;4444272;32;20088;-78
2021/01/06 03:32:22;;;;;;;9.77;2.37;;;;;;;4.53;74.57;101418.25;4441403;32;20155;-76
2021/01/06 03:34:57;;;;;;;5.22;1.90;;;;;;;4.42;74.40;101409.75;4439107;32;20358;-78
2021/01/06 03:37:29;;;;;;;9.38;2.75;;;;;;;4.53;74.89;101402.34;4435233;32;20092;-75
2021/01/06 03:40:03;;;;;;;11.38;1.80;;;;;;;4.57;74.88;101405.94;4436060;32;20018;-78
2021/01/06 03:42:29;;;;;;;5.60;2.30;;;;;;;4.60;74.68;101404.41;4440387;32;20350;-77
2021/01/06 03:44:55;;;;;;;7.18;2.60;;;;;;;4.52;74.35;101408.28;4437820;32;20391;-74
2021/01/06 03:47:25;;;;;;;9.27;2.33;;;;;;;4.60;74.81;101401.62;4432486;32;20408;-75
2021/01/06 03:50:18;;;;;;;6.32;2.60;;;;;;;4.62;74.84;101404.81;4437582;32;20053;-78
2021/01/06 03:58:04;;;;;;;6.05;2.45;;;;;;;4.87;73.95;101398.31;3986909;32;15025298;-77
2021/01/06 04:03:19;;;;;;;10.77;2.92;;;;;;;4.88;74.14;101399.13;3961536;32;15722389;-75
2021/01/06 04:05:46;;;;;;;6.37;2.22;;;;;;;4.88;74.14;101399.13;4440997;32;20185;-74
2021/01/06 04:08:19;;;;;;;5.78;2.45;;;;;;;4.34;75.06;101388.59;4445827;32;20041;-77
2021/01/06 04:10:52;;;;;;;8.32;2.35;;;;;;;4.34;75.37;101383.00;4419521;32;20113;-75
2021/01/06 04:13:17;;;;;;;9.02;2.50;;;;;;;4.33;75.53;101384.22;4434619;32;20030;-77
2021/01/06 04:15:43;;;;;;;5.82;2.28;;;;;;;4.33;75.59;101387.00;4442478;32;20033;-75
2021/01/06 04:18:09;;;;;;;5.40;2.30;;;;;;;4.39;75.49;101387.44;4443732;32;20111;-76
2021/01/06 04:20:38;;;;;;;8.30;2.17;;;;;;;4.41;75.40;101374.72;4440974;32;20469;-77
2021/01/06 04:23:11;;;;;;;5.40;2.08;;;;;;;4.41;75.27;101385.87;4440878;32;20059;-76
2021/01/06 04:25:41;;;;;;;6.05;2.08;;;;;;;4.37;75.12;101376.69;4436134;32;20034;-75
2021/01/06 04:28:29;;;;;;;7.90;2.28;;;;;;;4.37;74.96;101375.87;4435545;32;20070;-76
2021/01/06 04:30:59;;;;;;;4.47;2.08;;;;;;;4.26;75.37;101364.59;4444897;32;20414;-77
2021/01/06 04:33:29;;;;;;;8.82;1.98;;;;;;;4.27;75.64;101365.41;4439430;32;20060;-75
2021/01/06 04:35:57;;;;;;;8.68;2.40;;;;;;;4.28;75.59;101362.25;4431480;32;20030;-76
2021/01/06 04:38:29;;;;;;;6.22;2.08;;;;;;;4.16;75.31;101359.72;4431900;32;20025;-75
2021/01/06 04:40:59;;;;;;;8.93;2.42;;;;;;;4.15;76.10;101369.28;4425362;32;20041;-78
2021/01/06 04:46:23;;;;;;;4.93;1.83;;;;;;;4.71;74.99;101364.28;3994433;32;15022031;-75
2021/01/06 05:02:44;;;;;;;9.63;2.60;;;;;;;5.17;73.76;101353.53;3994668;32;15023176;-76
2021/01/06 05:05:45;;;;;;;12.73;3.22;;;;;;;5.17;73.76;101353.53;4444058;32;20033;-77
2021/01/06 05:08:30;;;;;;;7.30;2.30;;;;;;;4.81;74.24;101352.44;4447068;32;20034;-75
2021/01/06 05:11:03;;;;;;;7.43;2.42;;;;;;;4.88;74.20;101346.13;4437516;32;20063;-77
2021/01/06 05:16:08;;;;;;;7.55;2.50;;;;;;;5.30;72.93;101346.44;4024037;31;15025783;-76
2021/01/06 05:18:34;;;;;;;7.80;2.15;;;;;;;5.30;72.93;101346.44;4464469;32;20028;-77
2021/01/06 05:21:06;;;;;;;5.90;1.95;;;;;;;4.82;73.94;101347.66;4465390;32;20045;-76
2021/01/06 05:23:36;;;;;;;8.55;2.12;;;;;;;4.73;74.36;101350.78;4470025;32;20082;-76
2021/01/06 05:26:04;;;;;;;12.05;2.05;;;;;;;4.69;74.52;101338.78;4456505;32;20082;-75
2021/01/06 05:28:31;;;;;;;7.57;2.00;;;;;;;4.77;74.59;101336.84;4461991;32;20072;-75
2021/01/06 05:30:58;;;;;;;10.73;2.53;;;;;;;4.62;74.64;101344.28;4470467;32;20025;-76
2021/01/06 05:33:32;;;;;;;6.20;1.90;;;;;;;4.67;74.61;101340.34;4464086;32;20036;-76
2021/01/06 05:35:58;;;;;;;5.78;2.28;;;;;;;4.67;74.84;101340.34;4439630;32;20457;-77
2021/01/06 05:38:24;;;;;;;7.97;2.70;;;;;;;4.63;74.70;101340.31;4455087;32;20316;-76
2021/01/06 05:40:50;;;;;;;7.03;2.45;;;;;;;4.67;74.89;101335.59;4455967;32;20079;-76
2021/01/06 05:45:56;;;;;;;11.18;2.45;;;;;;;4.80;74.64;101331.31;3962681;32;15723520;-76
2021/01/06 05:48:30;;;;;;;7.03;2.25;;;;;;;4.73;74.66;101330.47;4437255;32;20410;-77
2021/01/06 05:54:02;;;;;;;5.57;2.17;;;;;;;5.25;73.44;101341.25;4012612;31;15015641;-76
2021/01/06 06:07:26;;;;;;;10.25;2.35;;;;;;;5.49;73.18;101349.75;3986800;32;15022444;-76
2021/01/06 06:10:31;;;;;;;4.70;1.92;;;;;;;5.03;74.22;101348.63;4443521;32;20044;-77
2021/01/06 06:16:06;;;;;;;5.40;1.90;;;;;;;5.46;73.54;101361.69;3990371;32;15025934;-76
2021/01/06 06:18:54;;;;;;;5.78;1.80;;;;;;;5.46;73.54;101361.69;4442960;32;20100;-77
2021/01/06 06:21:29;;;;;;;6.37;2.00;;;;;;;5.05;74.06;101346.28;4446566;32;20060;-78
2021/01/06 06:24:14;;;;;;;6.97;1.75;;;;;;;5.00;73.86;101354.97;4446513;32;20049;-76
2021/01/06 06:26:54;;;;;;;7.68;1.90;;;;;;;5.12;73.65;101351.13;4443452;32;20438;-78
2021/01/06 06:32:09;;;;;;;5.28;2.00;;;;;;;5.71;72.63;101367.47;3955349;32;15022976;-75
2021/01/06 06:34:39;;;;;;;5.85;2.03;;;;;;;5.71;72.63;101367.47;4393795;32;20049;-77
2021/01/06 06:40:05;;;;;;;4.53;2.80;;;;;;;5.85;71.83;101365.56;4013081;31;15019616;-76
2021/01/06 06:48:17;;;;;;;5.80;2.33;;;;;;;5.52;72.25;101364.91;3991048;32;15025433;-80
2021/01/06 06:54:06;;;;;;;5.28;2.03;;;;;;;5.88;71.65;101375.97;3989804;32;15023051;-76
2021/01/06 06:56:55;;;;;;;4.05;2.10;;;;;;;5.88;71.65;101375.97;4438431;32;20037;-76
2021/01/06 06:59:30;;;;;;;12.13;2.30;;;;;;;5.53;72.53;101372.13;4443885;32;20112;-76
2021/01/06 07:02:02;;;;;;;5.82;2.05;;;;;;;5.59;72.03;101374.16;4437412;32;20018;-76
2021/01/06 07:07:05;;;;;;;6.22;1.90;;;;;;;6.10;70.67;101386.03;3960644;32;15728535;-76
2021/01/06 07:09:34;;;;;;;4.62;2.30;;;;;;;6.10;70.67;101386.03;4432935;32;20045;-76
2021/01/06 07:12:04;;;;;;;5.65;1.92;;;;;;;5.65;71.53;101374.59;4432323;32;20017;-80
2021/01/06 07:14:39;;;;;;;6.37;2.45;;;;;;;5.57;71.18;101367.34;4439021;32;20044;-79
2021/01/06 07:17:10;;;;;;;7.47;2.73;;;;;;;5.56;71.09;101383.28;4442327;32;20387;-78
2021/01/06 07:25:06;;;;;;;4.72;1.87;;;;;;;6.16;70.34;101388.47;3995320;31;15018211;-78
2021/01/06 07:27:34;;;;;;;4.57;1.80;;;;;;;6.16;70.34;101388.47;4460368;32;20041;-76
2021/01/06 07:30:00;;;;;;;8.63;2.65;;;;;;;5.80;71.28;101381.88;4460130;32;20073;-78
2021/01/06 07:32:39;;;;;;;6.15;2.55;;;;;;;5.79;71.23;101378.25;4461389;32;20025;-77
2021/01/06 07:35:11;;;;;;;4.72;2.55;;;;;;;5.80;71.23;101384.66;4442513;32;20077;-74
2021/01/06 07:43:11;;;;;;;7.78;2.75;;;;;;;6.22;72.21;101387.66;3985506;32;15022699;-76
2021/01/06 07:51:06;;;;;;;6.82;2.85;;;;;;;6.01;72.56;101382.78;3992387;32;15026953;-76
2021/01/06 07:53:38;;;;;;;6.70;2.92;;;;;;;6.01;72.56;101382.78;4436101;32;20144;-78
2021/01/06 07:56:28;;;;;;;9.70;2.90;;;;;;;5.59;73.37;101388.09;4445305;32;20083;-77
2021/01/06 07:58:58;;;;;;;8.55;3.25;;;;;;;5.54;73.32;101391.28;4440487;32;20088;-77
2021/01/06 08:01:34;;;;;;;14.65;3.55;;;;;;;5.59;74.01;101396.47;4442479;32;20094;-79
2021/01/06 08:04:07;;;;;;;8.82;3.65;;;;;;;5.55;74.01;101392.87;4445876;32;20089;-76
2021/01/06 08:06:51;;;;;;;8.20;3.33;;;;;;;5.53;73.46;101398.03;4435269;32;20233;-78
2021/01/06 08:09:39;;;;;;;8.13;3.67;;;;;;;5.49;74.21;101400.00;4439909;32;20041;-80
2021/01/06 08:12:32;;;;;;;6.05;3.30;;;;;;;5.54;74.27;101398.84;4435038;32;20381;-75
2021/01/06 08:18:21;;;;;;;8.60;3.67;;;;;;;5.67;73.62;101405.72;3990299;32;15022291;-78
2021/01/06 08:21:23;;;;;;;9.65;3.92;;;;;;;5.60;73.61;101402.87;4445008;32;20056;-78
2021/01/06 08:24:15;;;;;;;9.95;3.70;;;;;;;5.55;73.66;101409.63;4447341;32;20520;-81
2021/01/06 08:27:00;;;;;;;11.05;3.90;;;;;;;5.48;74.08;101412.38;4442478;32;20037;-77
2021/01/06 08:29:33;;;;;;;11.93;4.53;;;;;;;5.33;73.75;101413.44;4441169;32;20038;-77
2021/01/06 08:34:41;;;;;;;8.55;3.95;;;;;;;5.37;73.37;101413.50;3958586;32;15032939;-77
2021/01/06 08:37:11;;;;;;;10.43;4.22;;;;;;;5.33;73.84;101415.44;4415320;32;20065;-78
2021/01/06 08:39:50;;;;;;;12.90;3.78;;;;;;;5.48;74.07;101415.16;4418910;32;20061;-78
2021/01/06 08:42:21;;;;;;;11.10;4.35;;;;;;;5.54;74.30;101419.19;4425694;32;20042;-76
2021/01/06 08:44:56;;;;;;;13.10;4.97;;;;;;;5.61;74.55;101413.66;4427259;32;20038;-82
2021/01/06 08:47:32;;;;;;;;;;;;;;;5.57;74.84;101421.22;4421784;32;20030;-77
2021/01/06 08:50:35;;;;;;;12.68;4.15;;;;;;;5.58;73.82;101420.00;4423545;32;19949;-76
2021/01/06 08:53:05;;;;;;;8.77;4.78;;;;;;;5.65;74.31;101422.84;4427896;32;20206;-77
2021/01/06 08:55:35;;;;;;;12.55;4.60;;;;;;;5.64;73.86;101420.44;4420221;32;20089;-76
2021/01/06 08:58:12;;;;;;;12.32;4.68;;;;;;;5.73;74.59;101416.13;4421782;32;20021;-75
2021/01/06 09:03:29;;;;;;;13.90;5.50;;;;;;;6.12;73.23;101433.16;3986003;32;15025217;-78
2021/01/06 09:11:34;;;;;;;17.27;4.55;;;;;;;6.18;72.84;101437.16;3985305;32;15023518;-75
2021/01/06 09:14:07;;;;;;;;;;;;;;;6.18;72.84;101437.16;4440062;32;20494;-81
2021/01/06 09:19:36;;;;;;;12.30;4.75;;;;;;;6.37;71.87;101431.25;3964701;32;15723166;-77
2021/01/06 09:22:02;;;;;;;12.77;5.12;;;;;;;6.37;71.87;101431.25;4438749;32;20037;-79
2021/01/06 09:24:33;;;;;;;12.45;5.22;;;;;;;5.94;72.67;101424.69;4426002;32;20042;-79
2021/01/06 09:27:20;;;;;;;8.90;4.28;;;;;;;6.00;72.81;101431.50;4439339;32;20073;-78
2021/01/06 09:29:47;;;;;;;10.88;4.65;;;;;;;6.06;72.77;101420.75;4435767;32;20026;-79
2021/01/06 09:32:19;;;;;;;8.45;4.28;;;;;;;6.13;72.32;101424.38;4439914;32;20435;-77
2021/01/06 09:34:48;;;;;;;12.65;4.90;;;;;;;6.18;72.62;101428.78;4441746;32;20037;-80
2021/01/06 09:37:23;;;;;;;9.82;4.87;;;;;;;6.27;72.62;101432.03;4427415;32;20653;-77
2021/01/06 09:39:51;;;;;;;8.23;4.10;;;;;;;6.31;72.04;101429.22;4431038;32;20030;-78
2021/01/06 09:42:18;;;;;;;10.02;3.97;;;;;;;6.31;71.48;101437.59;4429560;32;20073;-78
2021/01/06 09:44:44;;;;;;;9.90;4.28;;;;;;;6.37;71.42;101427.66;4416936;32;20072;-78
2021/01/06 09:47:32;;;;;;;9.70;4.62;;;;;;;6.28;71.17;101432.81;4426758;32;20030;-78
2021/01/06 09:50:03;;;;;;;11.82;4.20;;;;;;;6.45;71.24;101432.09;4429432;32;20090;-78
2021/01/06 09:55:06;;;;;;;14.02;4.50;;;;;;;6.88;70.05;101448.59;3970071;32;15725591;-79
2021/01/06 09:57:33;;;;;;;10.57;4.32;;;;;;;6.88;70.05;101448.59;4445496;32;20024;-80
2021/01/06 10:00:10;;;;;;;7.68;4.00;;;;;;;6.54;71.06;101443.72;4443259;32;20418;-79
2021/01/06 10:02:37;;;;;;;10.35;3.87;;;;;;;6.53;70.53;101442.12;4438637;32;20026;-79
2021/01/06 10:05:34;;;;;;;10.48;4.68;;;;;;;6.52;70.47;101443.28;4442513;32;20073;-80
2021/01/06 10:08:39;;;;;;;12.95;5.65;;;;;;;6.58;70.53;101438.91;4440717;32;20034;-79
2021/01/06 10:17:10;;;;;;;14.80;5.75;;;;;;;6.87;69.49;101435.00;3985799;32;15024983;-77
2021/01/06 10:31:03;;;;;;;9.23;3.95;;;;;;;6.87;70.41;101426.63;3990940;32;15021346;-82
2021/01/06 10:33:31;;;;;;;8.68;3.78;;;;;;;6.84;70.12;101430.22;4441862;32;20064;-78
2021/01/06 10:38:48;;;;;;;17.45;5.05;;;;;;;6.74;68.82;101434.56;3993146;32;15024612;-80
2021/01/06 10:44:01;;;;;;;9.07;3.90;;;;;;;7.38;69.28;101439.06;3992898;32;15027241;-79
2021/01/06 10:54:41;;;;;;;12.70;4.47;;;;;;;7.50;68.29;101421.84;3998573;32;15024154;-81
2021/01/06 10:57:19;;;;;;;16.62;5.00;;;;;;;7.50;68.29;101421.84;4448018;32;20617;-81
2021/01/06 11:16:44;;;;;;;11.55;4.18;;;;;;;7.80;66.29;101394.19;3995094;31;15018289;-78
2021/01/06 11:19:49;;;;;;;9.07;3.85;;;;;;;7.80;66.29;101394.19;4452546;32;20144;-78
2021/01/06 11:24:55;;;;;;;14.20;5.03;;;;;;;7.82;66.95;101377.78;4015549;31;15016327;-79
2021/01/06 11:28:01;;;;;;;12.93;5.10;;;;;;;7.82;66.95;101377.78;4468305;32;20043;-79
2021/01/06 11:30:30;;;;;;;18.65;5.40;;;;;;;7.32;67.80;101389.44;4470394;32;20083;-81
2021/01/06 11:38:50;;;;;;;12.98;5.47;;;;;;;7.35;67.13;101364.25;3989253;32;15024312;-79
2021/01/06 11:52:22;;;;;;;14.45;5.50;;;;;;;8.64;64.65;101350.97;4010505;31;15013464;-81
2021/01/06 12:00:26;;;;;;;16.87;5.65;;;;;;;9.18;61.98;101336.13;3985749;32;15023771;-77
2021/01/06 12:06:29;;;;;;;12.93;5.20;;;;;;;9.66;60.23;101330.41;4000831;32;15029910;-80
2021/01/06 12:15:32;;;;;;;13.88;5.30;;;;;;;10.22;58.16;101315.72;3988438;32;15022627;-79
2021/01/06 12:18:02;;;;;;;11.80;5.65;;;;;;;10.22;58.16;101315.72;4443260;32;20021;-79
2021/01/06 12:20:34;;;;;;;21.23;5.68;;;;;;;9.80;58.81;101302.97;4444190;32;20053;-77
2021/01/06 12:25:55;;;;;;;11.35;5.53;;;;;;;10.50;57.34;101304.06;3988494;32;15023740;-78
2021/01/06 12:28:44;;;;;;;10.13;4.50;;;;;;;10.50;57.34;101304.06;4445917;32;20045;-78
2021/01/06 12:34:13;;;;;;;11.13;4.50;;;;;;;10.39;56.30;101294.16;3954251;32;15851574;-77
2021/01/06 12:37:02;;;;;;;16.02;5.03;;;;;;;10.63;55.76;101296.62;4446786;32;20038;-77
2021/01/06 12:39:32;;;;;;;14.93;5.65;;;;;;;10.42;55.55;101280.06;4435803;32;20030;-76
2021/01/06 12:44:59;;;;;;;8.45;4.32;;;;;;;11.38;53.66;101277.22;3987580;32;15021902;-76
2021/01/06 12:47:30;;;;;;;14.93;4.57;;;;;;;11.38;53.66;101277.22;4446979;32;20041;-77
2021/01/06 12:50:18;;;;;;;13.00;5.20;;;;;;;11.05;53.98;101267.75;4446019;32;20437;-77
2021/01/06 12:52:52;;;;;;;17.05;5.70;;;;;;;11.02;53.40;101274.25;4441888;32;20066;-77
2021/01/06 12:58:10;;;;;;;16.12;5.78;;;;;;;11.08;53.54;101271.75;3983481;32;15023280;-77
2021/01/06 13:00:41;;;;;;;9.20;4.95;;;;;;;11.08;53.54;101271.75;4446202;32;20108;-79
2021/01/06 13:06:14;;;;;;;14.07;5.72;;;;;;;11.10;53.96;101267.28;3990163;32;15024784;-78
2021/01/06 13:09:04;;;;;;;15.18;4.82;;;;;;;11.10;53.96;101267.28;4437483;32;20508;-78
2021/01/06 13:31:23;;;;;;;13.05;3.78;;;;;;;11.28;51.95;101262.12;4009540;31;15016173;-82
2021/01/06 13:34:01;;;;;;;7.93;3.67;;;;;;;10.96;53.10;101252.66;4451856;32;20025;-81
2021/01/06 13:36:39;;;;;;;10.75;4.30;;;;;;;11.07;52.59;101256.87;4468819;32;20128;-79
2021/01/06 13:42:20;;;;;;;9.35;4.55;;;;;;;11.10;53.42;101252.38;3977128;32;15016670;-81
2021/01/06 13:44:47;;;;;;;15.55;4.40;;;;;;;11.10;53.42;101252.38;4433067;32;20060;-83
2021/01/06 13:47:20;;;;;;;13.05;4.60;;;;;;;10.68;53.59;101239.84;4430869;32;20103;-81
2021/01/06 13:52:36;;;;;;;11.12;4.00;;;;;;;11.55;52.34;101239.44;3974001;32;15030581;-77
2021/01/06 14:06:20;;;;;;;13.15;5.35;;;;;;;11.77;51.22;101244.25;3989743;32;15024435;-79
2021/01/06 14:14:56;;;;;;;11.48;4.93;;;;;;;11.64;51.64;101250.97;3991759;32;15023835;-78
2021/01/06 14:23:01;;;;;;;11.38;5.40;;;;;;;11.02;51.94;101234.81;3987298;32;15024388;-80
2021/01/06 14:25:33;;;;;;;12.35;4.62;;;;;;;11.02;51.94;101234.81;4446622;32;20146;-78
2021/01/06 14:28:13;;;;;;;9.90;4.65;;;;;;;10.83;53.20;101235.56;4445848;32;20038;-80
2021/01/06 14:30:50;;;;;;;9.82;4.50;;;;;;;10.94;53.31;101241.81;4446567;32;20063;-78
2021/01/06 14:33:41;;;;;;;13.23;4.62;;;;;;;11.15;53.03;101232.97;4438778;32;20018;-77
2021/01/06 14:42:17;;;;;;;9.65;4.95;;;;;;;11.83;51.18;101241.72;3990061;32;15029170;-79
2021/01/06 14:50:33;;;;;;;14.77;6.07;;;;;;;11.85;50.49;101237.22;3984075;32;15029385;-79
2021/01/06 14:59:06;;;;;;;14.52;6.40;;;;;;;11.80;50.94;101242.59;3996379;32;15023689;-83
2021/01/06 15:01:38;;;;;;;14.38;6.45;;;;;;;11.80;50.94;101242.59;4461510;32;20097;-81
2021/01/06 15:04:14;;;;;;;16.60;5.80;;;;;;;11.12;52.38;101236.66;4458938;32;20021;-81
2021/01/06 15:07:02;;;;;;;13.25;6.50;;;;;;;10.91;53.09;101236.22;4442408;32;20063;-82
2021/01/06 15:15:21;;;;;;;15.23;5.37;;;;;;;10.34;55.67;101227.91;4009393;31;15015020;-79
2021/01/06 15:17:47;;;;;;;12.52;4.75;;;;;;;10.34;55.67;101227.91;4464006;32;20064;-78
2021/01/06 15:23:02;;;;;;;11.80;5.57;;;;;;;9.71;57.16;101237.22;3990722;32;15028549;-81
2021/01/06 15:28:24;;;;;;;11.40;5.95;;;;;;;9.14;58.32;101222.25;3993338;32;15024016;-79
2021/01/06 15:30:58;;;;;;;15.75;6.10;;;;;;;9.14;58.32;101222.25;4443858;32;20038;-82
2021/01/06 15:36:11;;;;;;;11.00;5.70;;;;;;;8.63;61.00;101219.53;4474714;31;19992;-80
2021/01/06 15:38:37;;;;;;;12.70;5.90;;;;;;;8.63;61.00;101219.53;3939701;32;21976;-82
2021/01/06 15:41:08;;;;;;;10.68;5.32;;;;;;;8.06;61.79;101224.72;4420307;32;20102;-83
2021/01/06 15:43:40;;;;;;;21.77;5.37;;;;;;;7.93;62.49;101224.41;4414604;32;20052;-79
2021/01/06 15:49:03;;;;;;;13.40;5.87;;;;;;;8.10;63.05;101223.50;3994372;32;15023803;-77
2021/01/06 15:51:32;;;;;;;12.37;5.50;;;;;;;8.10;63.05;101223.50;4441026;32;20061;-78
2021/01/06 15:54:10;;;;;;;9.60;6.03;;;;;;;7.35;63.72;101223.47;4434180;32;20089;-78
2021/01/06 15:56:45;;;;;;;14.82;6.00;;;;;;;7.34;64.64;101228.25;4432657;32;20096;-78
2021/01/06 15:59:17;;;;;;;14.23;5.62;;;;;;;7.23;65.13;101218.28;4440526;32;20388;-78
2021/01/06 16:01:44;;;;;;;22.48;7.07;;;;;;;7.21;65.32;101226.31;4437877;32;20069;-77
2021/01/06 16:04:10;;;;;;;16.67;6.97;;;;;;;7.15;65.47;101225.12;4437149;32;20063;-79
2021/01/06 16:09:30;;;;;;;15.20;7.40;;;;;;;7.51;65.02;101232.19;3989590;32;15028683;-78
2021/01/06 16:11:59;;;;;;;18.00;6.93;;;;;;;7.51;65.02;101232.19;4439843;32;20125;-77
2021/01/06 16:14:33;;;;;;;15.00;7.18;;;;;;;6.91;66.47;101240.78;4445892;32;20044;-78
2021/01/06 16:17:06;;;;;;;18.83;7.28;;;;;;;6.86;66.75;101234.75;4443722;32;20034;-79
2021/01/06 16:19:39;;;;;;;14.05;7.40;;;;;;;6.81;66.70;101240.78;4438176;32;20086;-77
2021/01/06 16:22:05;;;;;;;14.68;7.45;;;;;;;6.71;66.77;101241.56;4444517;32;20047;-79
2021/01/06 16:24:34;;;;;;;20.25;8.07;;;;;;;6.66;66.96;101239.19;4444338;32;20042;-78
2021/01/06 16:27:08;;;;;;;14.43;7.10;;;;;;;6.64;67.18;101236.78;4445192;32;20069;-78
2021/01/06 16:32:27;;;;;;;19.37;8.32;;;;;;;6.87;67.11;101234.34;3983347;32;15027275;-79
2021/01/06 16:37:36;;;;;;;13.82;6.25;;;;;;;6.76;67.60;101230.00;3987087;32;15021702;-79
2021/01/06 16:42:55;;;;;;;12.98;6.03;;;;;;;6.73;67.52;101236.38;3993113;32;15022825;-81
2021/01/06 16:45:22;;;;;;;12.85;6.05;;;;;;;6.73;67.52;101236.38;4442320;32;20396;-81
2021/01/06 16:47:50;;;;;;;15.10;7.28;;;;;;;6.21;68.61;101234.34;4435731;32;20026;-80